createdAt,value
2022-10-06T00:01:56.028Z,17.05
2022-10-06T00:06:58.827Z,16.44
2022-10-06T00:12:01.528Z,18.25
2022-10-06T00:17:04.818Z,16.55
2022-10-06T00:22:07.536Z,14.99
2022-10-06T00:27:10.232Z,16.96
2022-10-06T00:32:12.911Z,17.77
2022-10-06T00:37:15.630Z,15.53
2022-10-06T00:42:31.412Z,15.87
2022-10-06T00:47:34.174Z,18.20
2022-10-06T00:52:36.902Z,16.60
2022-10-06T00:57:41.362Z,16.44
2022-10-06T01:03:07.910Z,17.22
2022-10-06T01:08:10.750Z,15.14
2022-10-06T01:13:14.873Z,17.13
2022-10-06T01:18:20.385Z,17.58
2022-10-06T01:23:23.503Z,15.40
2022-10-06T01:28:26.722Z,17.09
2022-10-06T01:33:30.375Z,17.91
2022-10-06T01:38:33.536Z,15.62
2022-10-06T01:43:36.313Z,15.76
2022-10-06T01:48:38.983Z,17.14
2022-10-06T01:53:42.091Z,15.14
2022-10-06T01:58:44.760Z,16.32
2022-10-06T02:03:47.439Z,17.92
2022-10-06T02:08:50.288Z,16.07
2022-10-06T02:13:53.605Z,17.14
2022-10-06T02:18:56.299Z,16.53
2022-10-06T02:23:59.174Z,15.37
2022-10-06T02:29:01.823Z,17.50
2022-10-06T02:34:04.948Z,16.11
2022-10-06T02:39:07.813Z,15.79
2022-10-06T02:44:10.561Z,17.88
2022-10-06T02:49:13.733Z,16.69
2022-10-06T02:54:16.624Z,16.08
2022-10-06T02:59:19.307Z,17.38
2022-10-06T03:04:22.027Z,15.43
2022-10-06T03:09:25.355Z,16.60
2022-10-06T03:14:28.166Z,17.19
2022-10-06T03:19:30.835Z,15.31
2022-10-06T03:24:33.857Z,17.17
2022-10-06T03:29:36.523Z,16.91
2022-10-06T03:34:39.221Z,14.81
2022-10-06T03:39:42.120Z,16.47
2022-10-06T03:44:44.875Z,17.64
2022-10-06T03:49:47.867Z,15.33
2022-10-06T03:54:50.547Z,16.14
2022-10-06T03:59:53.282Z,17.96
2022-10-06T04:04:56.552Z,16.05
2022-10-06T04:09:59.155Z,16.32
2022-10-06T04:15:02.486Z,17.64
2022-10-06T04:20:06.010Z,15.62
2022-10-06T04:25:08.886Z,16.57
2022-10-06T04:30:12.751Z,17.14
2022-10-06T04:35:15.632Z,15.45
2022-10-06T04:40:18.542Z,17.30
2022-10-06T04:45:21.237Z,17.02
2022-10-06T04:50:24.147Z,16.32
2022-10-06T04:55:26.786Z,17.43
2022-10-06T05:00:29.531Z,16.61
2022-10-06T05:05:32.196Z,18.30
2022-10-06T05:10:34.864Z,17.58
2022-10-06T05:15:37.877Z,16.81
2022-10-06T05:20:40.571Z,17.86
2022-10-06T05:25:51.741Z,17.03
2022-10-06T05:30:55.137Z,18.16
2022-10-06T05:36:00.750Z,16.35
2022-10-06T05:41:03.342Z,17.59
2022-10-06T05:46:11.057Z,18.33
2022-10-06T05:51:15.052Z,17.20
2022-10-06T05:56:20.524Z,18.45
2022-10-06T06:01:37.051Z,17.51
2022-10-06T06:06:46.255Z,16.99
2022-10-06T06:11:51.036Z,18.77
2022-10-06T06:16:54.356Z,17.41
2022-10-06T06:21:57.440Z,18.70
2022-10-06T06:27:00.305Z,17.96
2022-10-06T06:32:06.005Z,18.27
2022-10-06T06:37:14.979Z,19.24
2022-10-06T06:42:19.206Z,17.71
2022-10-06T06:47:25.976Z,18.97
2022-10-06T06:52:31.135Z,17.50
2022-10-06T06:57:34.363Z,18.45
2022-10-06T07:02:41.867Z,19.34
2022-10-06T07:07:48.627Z,18.07
2022-10-06T07:24:20.873Z,18.97
2022-10-06T07:29:25.258Z,18.93
2022-10-06T07:40:18.567Z,19.03
2022-10-06T07:45:39.041Z,20.06
2022-10-06T07:50:43.816Z,19.15
2022-10-06T07:55:47.891Z,20.19
2022-10-06T08:00:52.908Z,19.29
2022-10-06T08:06:03.392Z,20.31
2022-10-06T08:11:08.179Z,19.21
2022-10-06T08:16:22.996Z,20.33
2022-10-06T08:21:29.090Z,19.26
2022-10-06T08:26:33.279Z,20.35
2022-10-06T08:31:36.086Z,19.73
2022-10-06T08:36:38.973Z,20.80
2022-10-06T08:41:51.210Z,19.98
2022-10-06T08:47:02.578Z,20.85
2022-10-06T08:52:27.990Z,19.73
2022-10-06T08:58:29.461Z,20.91
2022-10-06T09:03:45.909Z,19.54
2022-10-06T09:09:35.694Z,20.56
2022-10-06T09:15:12.346Z,19.32
2022-10-06T09:20:38.397Z,20.67
2022-10-06T09:25:42.026Z,19.88
2022-10-06T09:30:53.151Z,19.00
2022-10-06T09:36:08.316Z,19.91
2022-10-06T09:41:30.077Z,20.26
2022-10-06T09:46:43.949Z,19.14
2022-10-06T09:52:07.695Z,19.67
2022-10-06T09:57:28.929Z,20.47
2022-10-06T10:02:39.875Z,19.59
2022-10-06T10:08:07.284Z,19.03
2022-10-06T10:13:43.915Z,18.38
2022-10-06T10:25:25.649Z,19.02
2022-10-06T10:30:39.573Z,18.32
2022-10-06T10:35:48.582Z,18.11
2022-10-06T10:41:11.929Z,18.03
2022-10-06T10:46:34.856Z,18.08
2022-10-06T10:51:52.967Z,18.33
2022-10-06T10:56:55.823Z,18.22
2022-10-06T11:02:14.487Z,18.02
2022-10-06T11:13:25.218Z,17.55
2022-10-06T11:18:49.648Z,17.32
2022-10-06T11:24:21.373Z,17.28
2022-10-06T11:29:43.199Z,17.41
2022-10-06T11:34:51.572Z,17.77
2022-10-06T11:40:17.345Z,18.29
2022-10-06T11:45:32.265Z,18.68
2022-10-06T11:50:43.306Z,18.89
2022-10-06T11:55:46.093Z,18.59
2022-10-06T12:00:49.769Z,18.20
2022-10-06T12:05:57.063Z,18.15
2022-10-06T12:11:02.384Z,18.31
2022-10-06T12:22:16.982Z,18.44
2022-10-06T12:27:30.271Z,18.38
2022-10-06T12:32:53.061Z,18.25
2022-10-06T12:38:05.096Z,18.19
2022-10-06T12:43:15.311Z,18.15
2022-10-06T12:48:26.967Z,18.18
2022-10-06T12:53:37.005Z,18.22
2022-10-06T12:58:39.727Z,18.22
2022-10-06T13:03:47.257Z,18.28
2022-10-06T13:09:15.049Z,18.32
2022-10-06T13:14:17.721Z,18.40
2022-10-06T13:19:25.891Z,18.46
2022-10-06T13:24:31.064Z,18.57
2022-10-06T13:29:33.734Z,18.73
2022-10-06T13:34:43.283Z,18.86
2022-10-06T13:39:46.725Z,19.02
2022-10-06T13:44:59.567Z,18.89
2022-10-06T13:50:08.372Z,18.68
2022-10-06T13:55:18.666Z,18.46
2022-10-06T14:00:25.740Z,18.31
2022-10-06T14:05:40.225Z,18.20
2022-10-06T14:10:49.750Z,18.18
2022-10-06T14:16:02.125Z,18.15
2022-10-06T14:21:36.791Z,18.26
2022-10-06T14:26:39.932Z,18.34
2022-10-06T14:31:43.702Z,18.37
2022-10-06T14:36:55.417Z,18.30
2022-10-06T14:41:58.865Z,18.30
2022-10-06T14:47:01.564Z,18.78
2022-10-06T14:52:05.676Z,19.11
2022-10-06T14:57:09.807Z,19.17
2022-10-06T15:02:12.643Z,19.24
2022-10-06T15:07:34.032Z,19.29
2022-10-06T15:12:36.932Z,19.31
2022-10-06T15:17:39.605Z,19.24
2022-10-06T15:22:42.288Z,19.17
2022-10-06T15:28:03.521Z,18.97
2022-10-06T15:33:06.568Z,18.41
2022-10-06T15:38:09.336Z,17.92
2022-10-06T15:43:14.202Z,17.57
2022-10-06T15:48:20.330Z,17.19
2022-10-06T15:53:23.151Z,16.59
2022-10-06T15:58:25.769Z,15.97
2022-10-06T16:03:41.278Z,15.43
2022-10-06T16:08:44.405Z,14.97
2022-10-06T16:13:47.099Z,14.58
2022-10-06T16:18:49.908Z,14.17
2022-10-06T16:23:53.732Z,13.77
2022-10-06T16:28:56.559Z,13.41
2022-10-06T16:33:59.406Z,13.13
2022-10-06T16:39:03.318Z,15.85
2022-10-06T16:44:06.041Z,17.27
2022-10-06T16:49:09.758Z,15.45
2022-10-06T16:54:14.782Z,14.37
2022-10-06T16:59:20.366Z,13.63
2022-10-06T17:04:26.066Z,13.03
2022-10-06T17:09:29.810Z,12.48
2022-10-06T17:14:34.591Z,13.69
2022-10-06T17:19:37.344Z,16.96
2022-10-06T17:24:40.028Z,15.99
2022-10-06T17:29:44.788Z,14.24
2022-10-06T17:34:47.898Z,13.23
2022-10-06T17:39:50.529Z,14.32
2022-10-06T17:44:53.869Z,16.87
2022-10-06T17:49:57.136Z,15.22
2022-10-06T17:54:59.809Z,13.69
2022-10-06T18:00:02.622Z,14.51
2022-10-06T18:05:07.098Z,16.72
2022-10-06T18:10:28.363Z,14.74
2022-10-06T18:15:36.342Z,13.19
2022-10-06T18:20:41.306Z,14.11
2022-10-06T18:25:44.489Z,16.41
2022-10-06T18:30:50.610Z,14.46
2022-10-06T18:36:14.942Z,13.76
2022-10-06T18:41:19.654Z,16.53
2022-10-06T18:46:41.904Z,14.87
2022-10-06T18:51:47.011Z,13.11
2022-10-06T18:56:53.489Z,15.26
2022-10-06T19:01:56.800Z,16.01
2022-10-06T19:06:59.653Z,13.77
2022-10-06T19:12:02.344Z,13.88
2022-10-06T19:17:14.975Z,16.24
2022-10-06T19:22:20.135Z,14.34
2022-10-06T19:27:25.109Z,13.06
2022-10-06T19:32:32.352Z,15.70
2022-10-06T19:37:35.045Z,15.33
2022-10-06T19:42:51.231Z,13.28
2022-10-06T19:47:54.822Z,14.09
2022-10-06T19:52:57.553Z,15.88
2022-10-06T19:58:00.538Z,13.71
2022-10-06T20:03:07.532Z,13.97
2022-10-06T20:08:10.223Z,16.07
2022-10-06T20:13:12.897Z,13.92
2022-10-06T20:18:15.926Z,14.05
2022-10-06T20:23:18.659Z,15.95
2022-10-06T20:28:21.620Z,13.77
2022-10-06T20:33:24.410Z,13.91
2022-10-06T20:38:47.056Z,15.55
2022-10-06T20:43:50.832Z,13.32
2022-10-06T20:48:53.665Z,13.75
2022-10-06T20:53:56.357Z,15.25
2022-10-06T20:59:08.816Z,13.01
2022-10-06T21:04:12.150Z,14.07
2022-10-06T21:09:16.784Z,15.33
2022-10-06T21:14:20.107Z,13.10
2022-10-06T21:19:22.916Z,13.51
2022-10-06T21:24:25.711Z,15.45
2022-10-06T21:29:28.483Z,13.31
2022-10-06T21:34:31.881Z,13.45
2022-10-06T21:39:35.038Z,15.31
2022-10-06T21:44:37.748Z,13.17
2022-10-06T21:49:40.499Z,12.10
2022-10-06T21:54:43.256Z,14.97
2022-10-06T21:59:47.062Z,14.65
2022-10-06T22:04:49.833Z,12.55
2022-10-06T22:09:52.584Z,13.20
2022-10-06T22:14:58.849Z,14.96
2022-10-06T22:20:01.616Z,12.83
2022-10-06T22:25:05.282Z,13.17
2022-10-06T22:30:09.096Z,14.88
2022-10-06T22:35:11.985Z,12.75
2022-10-06T22:40:14.813Z,13.22
2022-10-06T22:45:17.693Z,14.88
2022-10-06T22:50:20.441Z,12.74
2022-10-06T22:55:23.823Z,13.02
2022-10-06T23:00:27.863Z,15.21
2022-10-06T23:05:30.949Z,13.18
2022-10-06T23:10:37.127Z,11.92
2022-10-06T23:15:40.032Z,14.66
2022-10-06T23:20:42.839Z,14.02
2022-10-06T23:25:45.739Z,11.98
2022-10-06T23:30:48.537Z,12.73
2022-10-06T23:35:58.485Z,14.90
2022-10-06T23:41:01.304Z,12.73
2022-10-06T23:46:04.244Z,12.62
2022-10-06T23:51:13.040Z,14.94
2022-10-06T23:56:16.264Z,12.86
